Colmesneil, Texas
Current Conditions -  °F | °C
As of 3:35 PM on Wednesday 17 Dec 2014 (Local Time) from KJAS Reporting Station
Overcast Overcast  
Wind Chill: 56°   Ceiling: 11000
Heat Index: 56°   Visibility: 10mi
Dew Point: 43°   Wind: 7mph
Humidity: 63%   Direction: 90°E
Pressure: 30.17"   Gusts: NA
Location:  30.91°N, 94.42°W
Report Text: KJAS 172135Z AUTO 09006KT 10SM OVC110 13/06 A3017 RMK AO2 T01310062
Loading
Personal Weather Stations






























Interactive Weather Map New forecast layout! Learn more

10-Day Weather Forecast

Advertisements
Track Severe Weather on mobile